createdAt,value
2022-10-09T00:00:00.791Z,4.93
2022-10-09T00:00:34.086Z,5.25
2022-10-09T00:01:09.080Z,4.18
2022-10-09T00:01:40.856Z,3.88
2022-10-09T00:02:12.830Z,5.25
2022-10-09T00:02:46.026Z,5.20
2022-10-09T00:03:18.535Z,4.78
2022-10-09T00:03:52.769Z,4.65
2022-10-09T00:04:25.633Z,4.43
2022-10-09T00:04:57.437Z,4.50
2022-10-09T00:05:29.700Z,5.60
2022-10-09T00:06:02.778Z,5.05
2022-10-09T00:06:35.180Z,5.07
2022-10-09T00:07:06.941Z,4.57
2022-10-09T00:07:38.813Z,5.35
2022-10-09T00:08:12.110Z,4.72
2022-10-09T00:08:43.950Z,5.18
2022-10-09T00:09:17.016Z,5.60
2022-10-09T00:09:49.750Z,5.00
2022-10-09T00:10:21.768Z,4.93
2022-10-09T00:10:53.617Z,5.00
2022-10-09T00:11:28.493Z,4.25
2022-10-09T00:12:00.267Z,5.63
2022-10-09T00:12:32.058Z,4.18
2022-10-09T00:13:03.818Z,5.45
2022-10-09T00:13:37.539Z,5.35
2022-10-09T00:14:09.398Z,4.32
2022-10-09T00:14:41.215Z,3.90
2022-10-09T00:15:14.145Z,5.70
2022-10-09T00:15:47.529Z,4.93
2022-10-09T00:16:21.008Z,4.57
2022-10-09T00:16:55.369Z,4.68
2022-10-09T00:17:27.153Z,5.30
2022-10-09T00:17:58.933Z,4.88
2022-10-09T00:18:31.943Z,6.00
2022-10-09T00:19:03.933Z,5.13
2022-10-09T00:19:35.931Z,5.00
2022-10-09T00:20:09.855Z,6.22
2022-10-09T00:20:43.420Z,5.20
2022-10-09T00:21:19.064Z,5.20
2022-10-09T00:21:51.781Z,4.32
2022-10-09T00:22:23.653Z,5.28
2022-10-09T00:22:55.414Z,5.53
2022-10-09T00:23:28.134Z,4.97
2022-10-09T00:24:02.265Z,5.35
2022-10-09T00:24:34.033Z,6.60
2022-10-09T00:25:07.875Z,5.07
2022-10-09T00:25:39.676Z,5.05
2022-10-09T00:26:11.931Z,4.72
2022-10-09T00:26:44.660Z,5.07
2022-10-09T00:27:16.425Z,5.10
2022-10-09T00:27:48.189Z,5.25
2022-10-09T00:28:20.277Z,5.00
2022-10-09T00:28:53.403Z,5.47
2022-10-09T00:29:25.282Z,4.60
2022-10-09T00:29:57.089Z,5.65
2022-10-09T00:30:29.928Z,5.15
2022-10-09T00:31:05.654Z,5.03
2022-10-09T00:31:38.534Z,4.45
2022-10-09T00:32:10.334Z,4.38
2022-10-09T00:32:42.097Z,4.78
2022-10-09T00:33:14.397Z,4.80
2022-10-09T00:33:47.771Z,5.35
2022-10-09T00:34:19.565Z,4.85
2022-10-09T00:34:51.894Z,5.35
2022-10-09T00:35:24.629Z,4.50
2022-10-09T00:35:56.401Z,4.65
2022-10-09T00:36:28.276Z,5.07
2022-10-09T00:37:00.181Z,5.03
2022-10-09T00:37:32.923Z,4.78
2022-10-09T00:38:04.686Z,5.50
2022-10-09T00:38:36.524Z,6.60
2022-10-09T00:39:09.465Z,7.80
2022-10-09T00:39:41.265Z,4.90
2022-10-09T00:40:13.070Z,5.53
2022-10-09T00:40:45.822Z,5.07
2022-10-09T00:41:19.602Z,4.95
2022-10-09T00:41:51.362Z,5.68
2022-10-09T00:42:26.201Z,5.90
2022-10-09T00:42:58.689Z,5.07
2022-10-09T00:43:45.361Z,6.22
2022-10-09T00:44:48.200Z,5.20
2022-10-09T00:45:21.828Z,4.75
2022-10-09T00:45:56.461Z,4.90
2022-10-09T00:46:35.071Z,5.35
2022-10-09T00:47:16.436Z,4.55
2022-10-09T00:47:51.804Z,5.20
2022-10-09T00:48:23.833Z,5.25
2022-10-09T00:49:03.951Z,5.22
2022-10-09T00:49:37.190Z,5.60
2022-10-09T00:50:15.313Z,5.88
2022-10-09T00:50:52.562Z,6.55
2022-10-09T00:51:25.886Z,5.57
2022-10-09T00:52:00.768Z,5.55
2022-10-09T00:52:33.288Z,5.07
2022-10-09T00:53:06.117Z,5.70
2022-10-09T00:53:38.120Z,5.40
2022-10-09T00:54:13.294Z,5.18
2022-10-09T00:54:46.099Z,6.30
2022-10-09T00:55:18.582Z,5.45
2022-10-09T00:55:50.925Z,6.47
2022-10-09T00:56:24.340Z,5.55
2022-10-09T00:56:56.314Z,6.32
2022-10-09T00:57:28.499Z,6.60
2022-10-09T00:58:02.107Z,5.63
2022-10-09T00:58:34.109Z,5.30
2022-10-09T00:59:06.906Z,6.85
2022-10-09T00:59:40.713Z,5.45
2022-10-09T01:00:14.032Z,5.63
2022-10-09T01:00:46.067Z,5.18
2022-10-09T01:01:19.106Z,6.30
2022-10-09T01:01:53.295Z,7.55
2022-10-09T01:02:25.285Z,5.93
2022-10-09T01:02:58.450Z,5.60
2022-10-09T01:03:30.209Z,5.57
2022-10-09T01:04:01.979Z,6.07
2022-10-09T01:04:34.985Z,5.00
2022-10-09T01:05:09.342Z,5.78
2022-10-09T01:05:49.729Z,5.25
2022-10-09T01:06:31.200Z,5.93
2022-10-09T01:07:16.198Z,5.13
2022-10-09T01:07:57.221Z,6.45
2022-10-09T01:08:35.743Z,6.80
2022-10-09T01:09:11.937Z,5.88
2022-10-09T01:09:50.570Z,5.78
2022-10-09T01:10:30.170Z,5.03
2022-10-09T01:11:08.976Z,5.07
2022-10-09T01:11:49.929Z,6.05
2022-10-09T01:12:33.561Z,6.82
2022-10-09T01:13:10.363Z,5.15
2022-10-09T01:13:48.812Z,6.00
2022-10-09T01:14:25.369Z,5.82
2022-10-09T01:15:09.805Z,5.75
2022-10-09T01:15:50.254Z,5.75
2022-10-09T01:16:27.981Z,5.30
2022-10-09T01:17:06.802Z,6.00
2022-10-09T01:17:44.815Z,6.65
2022-10-09T01:18:24.170Z,5.45
2022-10-09T01:19:02.374Z,6.45
2022-10-09T01:19:55.834Z,6.15
2022-10-09T01:20:34.459Z,6.07
2022-10-09T01:21:13.246Z,5.55
2022-10-09T01:21:52.866Z,5.95
2022-10-09T01:22:38.917Z,5.70
2022-10-09T01:23:34.943Z,5.85
2022-10-09T01:24:24.647Z,6.95
2022-10-09T01:25:05.855Z,6.00
2022-10-09T01:25:49.528Z,5.70
2022-10-09T01:26:34.124Z,6.28
2022-10-09T01:27:11.855Z,6.10
2022-10-09T01:27:43.930Z,6.70
2022-10-09T01:28:17.779Z,6.20
2022-10-09T01:28:54.382Z,5.20
2022-10-09T01:29:32.689Z,6.82
2022-10-09T01:30:09.549Z,5.75
2022-10-09T01:30:42.266Z,6.13
2022-10-09T01:31:15.624Z,5.43
2022-10-09T01:31:50.932Z,5.55
2022-10-09T01:32:28.301Z,5.63
2022-10-09T01:33:00.855Z,6.15
2022-10-09T01:33:33.980Z,6.82
2022-10-09T01:34:07.390Z,6.07
2022-10-09T01:34:41.772Z,7.53
2022-10-09T01:35:15.339Z,6.20
2022-10-09T01:35:47.478Z,6.40
2022-10-09T01:36:22.435Z,7.05
2022-10-09T01:36:56.401Z,7.03
2022-10-09T01:37:31.596Z,6.35
2022-10-09T01:38:04.925Z,5.85
2022-10-09T01:38:39.656Z,5.85
2022-10-09T01:39:16.069Z,7.00
2022-10-09T01:39:49.208Z,7.13
2022-10-09T01:40:22.860Z,5.90
2022-10-09T01:40:56.802Z,5.90
2022-10-09T01:41:29.573Z,5.97
2022-10-09T01:42:02.227Z,6.57
2022-10-09T01:42:36.393Z,8.27
2022-10-09T01:43:08.163Z,7.70
2022-10-09T01:43:40.802Z,6.15
2022-10-09T01:44:18.314Z,6.15
2022-10-09T01:44:50.193Z,6.28
2022-10-09T01:45:22.136Z,6.22
2022-10-09T01:46:23.098Z,6.03
2022-10-09T01:46:55.605Z,6.47
2022-10-09T01:47:27.734Z,5.88
2022-10-09T01:48:00.684Z,6.35
2022-10-09T01:48:32.665Z,6.30
2022-10-09T01:49:12.568Z,6.00
2022-10-09T01:49:54.614Z,6.30
2022-10-09T01:50:31.483Z,6.75
2022-10-09T01:51:04.828Z,6.65
2022-10-09T01:51:45.555Z,6.68
2022-10-09T01:52:41.414Z,7.03
2022-10-09T01:53:19.040Z,6.80
2022-10-09T01:53:54.571Z,7.15
2022-10-09T01:54:35.085Z,6.50
2022-10-09T01:55:19.309Z,6.95
2022-10-09T01:55:59.630Z,7.05
2022-10-09T01:56:36.784Z,7.75
2022-10-09T01:57:11.096Z,7.03
2022-10-09T01:57:50.806Z,7.28
2022-10-09T01:58:28.038Z,7.40
2022-10-09T01:59:05.017Z,6.35
2022-10-09T01:59:41.723Z,6.05
2022-10-09T02:00:13.944Z,7.05
2022-10-09T02:00:50.861Z,7.30
2022-10-09T02:01:26.956Z,7.00
2022-10-09T02:02:00.543Z,7.38
2022-10-09T02:02:33.894Z,6.82
2022-10-09T02:03:10.382Z,6.57
2022-10-09T02:03:44.765Z,6.65
2022-10-09T02:04:19.462Z,9.00
2022-10-09T02:04:52.226Z,6.95
2022-10-09T02:05:27.839Z,6.68
2022-10-09T02:06:01.988Z,7.43
2022-10-09T02:06:35.714Z,7.30
2022-10-09T02:07:07.754Z,7.47
2022-10-09T02:07:39.660Z,7.25
2022-10-09T02:08:17.720Z,6.88
2022-10-09T02:08:52.354Z,5.70
2022-10-09T02:09:25.270Z,7.43
2022-10-09T02:09:59.275Z,6.47
2022-10-09T02:10:34.492Z,8.15
2022-10-09T02:11:06.718Z,7.15
2022-10-09T02:11:41.545Z,6.65
2022-10-09T02:12:18.293Z,5.93
2022-10-09T02:12:54.944Z,7.45
2022-10-09T02:13:27.098Z,6.63
2022-10-09T02:14:00.452Z,6.95
2022-10-09T02:14:33.496Z,6.60
2022-10-09T02:15:06.623Z,7.38
2022-10-09T02:15:45.375Z,7.38
2022-10-09T02:16:22.876Z,6.93
2022-10-09T02:17:00.890Z,7.05
2022-10-09T02:17:36.757Z,7.10
2022-10-09T02:18:14.019Z,7.10
2022-10-09T02:18:48.516Z,6.22
2022-10-09T02:19:25.320Z,6.55
2022-10-09T02:20:04.653Z,6.53
2022-10-09T02:20:39.848Z,6.95
2022-10-09T02:21:15.880Z,7.10
2022-10-09T02:21:54.490Z,6.72
2022-10-09T02:22:29.743Z,7.55
2022-10-09T02:23:04.134Z,7.18
2022-10-09T02:23:39.068Z,7.30
2022-10-09T02:24:14.962Z,7.07
2022-10-09T02:24:47.325Z,6.80
2022-10-09T02:25:20.195Z,6.82
2022-10-09T02:25:53.325Z,6.15
2022-10-09T02:26:25.686Z,7.30
2022-10-09T02:26:59.643Z,7.40
2022-10-09T02:27:32.472Z,6.85
2022-10-09T02:28:06.842Z,7.05
2022-10-09T02:28:43.918Z,8.05
2022-10-09T02:29:17.929Z,6.78
2022-10-09T02:29:50.130Z,7.47
2022-10-09T02:30:24.486Z,6.95
2022-10-09T02:31:01.438Z,7.57
2022-10-09T02:31:36.223Z,7.72
2022-10-09T02:32:09.226Z,9.75
2022-10-09T02:32:41.454Z,6.88
2022-10-09T02:33:13.205Z,6.80
2022-10-09T02:33:45.946Z,7.78
2022-10-09T02:34:19.676Z,8.30
2022-10-09T02:34:51.881Z,7.47
2022-10-09T02:35:24.662Z,6.85
2022-10-09T02:35:56.483Z,7.30
2022-10-09T02:36:29.693Z,7.60
2022-10-09T02:37:02.893Z,6.55
2022-10-09T02:37:34.712Z,6.88
2022-10-09T02:38:06.460Z,7.85
2022-10-09T02:38:39.200Z,6.90
2022-10-09T02:39:10.995Z,7.38
2022-10-09T02:39:43.669Z,7.60
2022-10-09T02:40:16.759Z,6.85
2022-10-09T02:40:48.663Z,6.38
2022-10-09T02:41:20.755Z,6.85
2022-10-09T02:41:53.482Z,6.35
2022-10-09T02:42:25.876Z,6.72
2022-10-09T02:42:57.698Z,6.55
2022-10-09T02:43:31.795Z,7.32
2022-10-09T02:44:04.485Z,6.70
2022-10-09T02:44:36.496Z,6.90
2022-10-09T02:45:10.672Z,6.97
2022-10-09T02:45:43.137Z,6.65
2022-10-09T02:46:15.175Z,7.95
2022-10-09T02:46:48.047Z,7.55
2022-10-09T02:47:19.893Z,7.15
2022-10-09T02:47:51.619Z,8.32
2022-10-09T02:48:24.414Z,7.07
2022-10-09T02:48:56.371Z,8.32
2022-10-09T02:49:28.369Z,6.88
2022-10-09T02:50:01.133Z,7.32
2022-10-09T02:50:32.888Z,7.70
2022-10-09T02:51:04.708Z,8.30
2022-10-09T02:51:37.457Z,7.50
2022-10-09T02:52:09.275Z,7.03
2022-10-09T02:52:41.086Z,8.70
2022-10-09T02:53:12.860Z,7.30
2022-10-09T02:53:46.549Z,7.40
2022-10-09T02:54:18.382Z,7.55
2022-10-09T02:54:50.131Z,7.30
2022-10-09T02:55:22.877Z,7.10
2022-10-09T02:55:54.678Z,7.03
2022-10-09T02:56:26.686Z,6.25
2022-10-09T02:56:59.428Z,6.68
2022-10-09T02:57:31.332Z,6.88
2022-10-09T02:58:03.132Z,8.05
2022-10-09T02:58:36.880Z,7.18
2022-10-09T02:59:09.654Z,7.45
2022-10-09T02:59:41.576Z,6.85
2022-10-09T03:00:14.402Z,7.20
2022-10-09T03:00:49.584Z,7.22
2022-10-09T03:01:21.511Z,8.82
2022-10-09T03:01:53.507Z,6.75
2022-10-09T03:02:26.634Z,7.03
2022-10-09T03:02:58.617Z,6.38
2022-10-09T03:03:30.619Z,5.90
2022-10-09T03:04:02.470Z,7.70
2022-10-09T03:04:35.247Z,7.40
2022-10-09T03:05:07.695Z,6.82
2022-10-09T03:05:39.457Z,6.43
2022-10-09T03:06:14.477Z,6.57
2022-10-09T03:06:46.256Z,6.60
2022-10-09T03:07:18.051Z,7.35
2022-10-09T03:07:52.996Z,6.60
2022-10-09T03:08:24.779Z,6.57
2022-10-09T03:08:56.843Z,6.95
2022-10-09T03:09:33.576Z,6.53
2022-10-09T03:10:06.485Z,7.72
2022-10-09T03:10:38.993Z,7.53
2022-10-09T03:11:14.023Z,6.40
2022-10-09T03:11:45.877Z,7.40
2022-10-09T03:12:21.188Z,7.50
2022-10-09T03:12:53.989Z,7.00
2022-10-09T03:13:25.827Z,7.57
2022-10-09T03:13:58.989Z,7.57
2022-10-09T03:14:31.770Z,7.22
2022-10-09T03:15:03.883Z,6.25
2022-10-09T03:15:36.290Z,7.10
2022-10-09T03:16:12.002Z,6.50
2022-10-09T03:16:43.845Z,6.40
2022-10-09T03:17:15.696Z,6.53
2022-10-09T03:17:48.473Z,6.75
2022-10-09T03:18:20.331Z,8.07
2022-10-09T03:18:53.606Z,7.13
2022-10-09T03:19:25.408Z,6.25
2022-10-09T03:19:58.172Z,6.78
2022-10-09T03:20:30.278Z,7.10
2022-10-09T03:21:05.644Z,6.68
2022-10-09T03:21:38.412Z,6.30
2022-10-09T03:22:10.202Z,6.55
2022-10-09T03:22:41.984Z,6.43
2022-10-09T03:23:14.084Z,6.80
2022-10-09T03:23:46.879Z,6.30
2022-10-09T03:24:18.706Z,7.40
2022-10-09T03:24:50.505Z,6.10
2022-10-09T03:25:23.703Z,6.28
2022-10-09T03:25:56.437Z,6.50
2022-10-09T03:26:28.318Z,7.35
2022-10-09T03:27:01.060Z,5.80
2022-10-09T03:27:32.850Z,6.38
2022-10-09T03:28:04.677Z,6.68
2022-10-09T03:28:38.427Z,7.80
2022-10-09T03:29:12.594Z,6.95
2022-10-09T03:29:44.364Z,6.30
2022-10-09T03:30:16.536Z,6.72
2022-10-09T03:30:48.586Z,5.90
2022-10-09T03:32:15.880Z,6.72
2022-10-09T03:32:48.972Z,5.82
2022-10-09T03:33:21.182Z,7.00
2022-10-09T03:33:52.991Z,7.00
2022-10-09T03:34:24.828Z,7.05
2022-10-09T03:34:57.584Z,6.85
2022-10-09T03:35:29.366Z,6.70
2022-10-09T03:36:01.770Z,6.13
2022-10-09T03:36:34.531Z,6.88
2022-10-09T03:37:07.290Z,6.82
2022-10-09T03:37:39.078Z,7.10
2022-10-09T03:38:10.882Z,6.25
2022-10-09T03:38:42.737Z,6.97
2022-10-09T03:39:15.492Z,6.60
2022-10-09T03:39:47.440Z,6.88
2022-10-09T03:40:19.226Z,6.75
2022-10-09T03:40:51.094Z,7.25
2022-10-09T03:41:23.853Z,6.20
2022-10-09T03:41:55.638Z,6.60
2022-10-09T03:42:27.422Z,8.55
2022-10-09T03:43:00.194Z,6.05
2022-10-09T03:43:32.613Z,6.35
2022-10-09T03:44:04.553Z,6.90
2022-10-09T03:44:38.654Z,6.90
2022-10-09T03:45:10.701Z,7.05
2022-10-09T03:45:43.143Z,6.35
2022-10-09T03:46:16.003Z,6.65
2022-10-09T03:46:47.856Z,6.50
2022-10-09T03:47:19.678Z,6.15
2022-10-09T03:47:52.446Z,6.65
2022-10-09T03:48:24.824Z,6.60
2022-10-09T03:48:56.589Z,6.88
2022-10-09T03:49:29.354Z,6.28
2022-10-09T03:50:01.590Z,5.72
2022-10-09T03:50:33.525Z,6.60
2022-10-09T03:51:06.545Z,6.07
2022-10-09T03:51:38.434Z,5.85
2022-10-09T03:52:10.218Z,6.72
2022-10-09T03:52:41.983Z,5.82
2022-10-09T03:53:15.300Z,6.80
2022-10-09T03:53:47.060Z,6.82
2022-10-09T03:54:18.879Z,7.30
2022-10-09T03:54:51.802Z,6.70
2022-10-09T03:55:23.626Z,5.90
2022-10-09T03:55:55.457Z,6.55
2022-10-09T03:56:28.199Z,5.95
2022-10-09T03:57:00.210Z,5.70
2022-10-09T03:57:31.956Z,5.93
2022-10-09T03:58:04.761Z,6.65
2022-10-09T03:58:36.585Z,6.55
2022-10-09T03:59:09.501Z,6.10
2022-10-09T03:59:43.568Z,6.40
2022-10-09T04:00:15.538Z,5.85
2022-10-09T04:00:49.373Z,6.53
2022-10-09T04:01:21.326Z,6.50
2022-10-09T04:01:54.312Z,6.20
2022-10-09T04:02:26.219Z,5.95
2022-10-09T04:02:58.151Z,5.55
2022-10-09T04:03:30.922Z,7.07
2022-10-09T04:04:02.764Z,5.75
2022-10-09T04:04:34.532Z,13.95
2022-10-09T04:05:08.341Z,11.50
2022-10-09T04:05:40.143Z,11.50
2022-10-09T04:06:11.973Z,10.77
2022-10-09T04:06:44.964Z,10.38
2022-10-09T04:07:16.832Z,11.02
2022-10-09T04:07:48.758Z,7.53
2022-10-09T04:08:21.546Z,8.82
2022-10-09T04:08:53.448Z,7.80
2022-10-09T04:09:25.293Z,9.60
2022-10-09T04:09:58.067Z,7.57
2022-10-09T04:10:29.881Z,7.78
2022-10-09T04:11:01.983Z,6.80
2022-10-09T04:11:35.048Z,6.20
2022-10-09T04:12:06.841Z,6.00
2022-10-09T04:12:38.749Z,6.15
2022-10-09T04:13:11.579Z,7.47
2022-10-09T04:13:43.383Z,5.50
2022-10-09T04:14:15.192Z,6.28
2022-10-09T04:14:48.324Z,5.88
2022-10-09T04:15:21.068Z,5.68
2022-10-09T04:15:53.532Z,6.38
2022-10-09T04:16:25.414Z,6.40
2022-10-09T04:16:58.227Z,6.32
2022-10-09T04:17:30.031Z,5.90
2022-10-09T04:18:01.852Z,5.90
2022-10-09T04:18:34.593Z,5.88
2022-10-09T04:19:06.426Z,6.55
2022-10-09T04:19:38.285Z,5.85
2022-10-09T04:20:11.240Z,6.57
2022-10-09T04:20:44.842Z,6.03
2022-10-09T04:21:16.992Z,5.63
2022-10-09T04:21:49.829Z,6.32
2022-10-09T04:22:22.073Z,5.82
2022-10-09T04:22:53.971Z,7.22
2022-10-09T04:23:28.330Z,6.13
2022-10-09T04:24:00.201Z,6.40
2022-10-09T04:24:31.978Z,6.05
2022-10-09T04:25:05.077Z,6.53
2022-10-09T04:25:36.900Z,6.88
2022-10-09T04:26:12.233Z,5.35
2022-10-09T04:26:45.176Z,5.72
2022-10-09T04:27:16.992Z,5.88
2022-10-09T04:27:48.822Z,6.40
2022-10-09T04:28:21.979Z,5.25
2022-10-09T04:28:53.816Z,5.60
2022-10-09T04:29:25.720Z,5.78
2022-10-09T04:29:59.805Z,5.95
2022-10-09T04:30:31.641Z,5.93
2022-10-09T04:31:04.102Z,6.65
2022-10-09T04:31:36.909Z,6.50
2022-10-09T04:32:08.968Z,5.53
2022-10-09T04:32:40.728Z,6.55
2022-10-09T04:33:13.466Z,6.15
2022-10-09T04:33:45.242Z,6.32
2022-10-09T04:34:17.099Z,5.63
2022-10-09T04:34:49.857Z,6.07
2022-10-09T04:35:21.655Z,6.22
2022-10-09T04:35:55.203Z,5.93
2022-10-09T04:36:27.941Z,7.15
2022-10-09T04:36:59.774Z,6.22
2022-10-09T04:37:31.602Z,5.47
2022-10-09T04:38:04.334Z,6.65
2022-10-09T04:38:36.175Z,5.28
2022-10-09T04:39:07.953Z,5.78
2022-10-09T04:39:41.186Z,6.72
2022-10-09T04:40:12.974Z,6.70
2022-10-09T04:40:44.841Z,5.85
2022-10-09T04:41:17.604Z,5.35
2022-10-09T04:41:49.400Z,6.00
2022-10-09T04:42:21.174Z,8.07
2022-10-09T04:42:53.934Z,7.25
2022-10-09T04:43:26.431Z,5.95
2022-10-09T04:43:58.273Z,5.95
2022-10-09T04:44:31.098Z,6.40
2022-10-09T04:45:05.087Z,6.75
2022-10-09T04:45:39.767Z,6.13
2022-10-09T04:46:14.878Z,5.90
2022-10-09T04:46:46.651Z,6.72
2022-10-09T04:47:18.441Z,6.20
2022-10-09T04:47:51.163Z,5.32
2022-10-09T04:48:23.257Z,6.80
2022-10-09T04:48:55.028Z,5.90
2022-10-09T04:49:27.869Z,6.32
2022-10-09T04:49:59.675Z,7.28
2022-10-09T04:50:31.472Z,7.15
2022-10-09T04:51:05.035Z,6.30
2022-10-09T04:51:36.783Z,6.25
2022-10-09T04:52:09.550Z,6.32
2022-10-09T04:52:41.332Z,5.88
2022-10-09T04:53:13.689Z,6.47
2022-10-09T04:53:46.580Z,6.93
2022-10-09T04:54:18.375Z,6.05
2022-10-09T04:54:50.166Z,5.95
2022-10-09T04:55:22.921Z,5.45
2022-10-09T04:55:54.749Z,6.25
2022-10-09T04:56:26.560Z,6.00
2022-10-09T04:56:59.319Z,5.45
2022-10-09T04:57:31.131Z,6.05
2022-10-09T04:58:02.918Z,6.28
2022-10-09T04:58:36.427Z,6.93
2022-10-09T04:59:08.184Z,6.25
2022-10-09T04:59:40.039Z,5.95
2022-10-09T05:00:15.370Z,6.72
2022-10-09T05:00:47.268Z,6.40
2022-10-09T05:01:22.130Z,6.00
2022-10-09T05:01:54.001Z,6.05
2022-10-09T05:02:25.854Z,6.95
2022-10-09T05:02:58.647Z,5.93
2022-10-09T05:03:31.084Z,4.78
2022-10-09T05:04:02.863Z,6.28
2022-10-09T05:04:35.713Z,5.60
2022-10-09T05:05:08.369Z,5.85
2022-10-09T05:05:40.275Z,5.80
2022-10-09T05:06:13.890Z,7.65
2022-10-09T05:06:45.662Z,6.75
2022-10-09T05:07:17.515Z,5.93
2022-10-09T05:07:50.245Z,7.40
2022-10-09T05:08:22.019Z,5.63
2022-10-09T05:08:54.728Z,5.95
2022-10-09T05:09:27.525Z,6.32
2022-10-09T05:09:59.280Z,5.65
2022-10-09T05:10:32.011Z,6.70
2022-10-09T05:11:06.229Z,5.78
2022-10-09T05:11:42.317Z,6.32
2022-10-09T05:12:14.584Z,6.07
2022-10-09T05:12:47.535Z,5.93
2022-10-09T05:13:19.465Z,6.22
2022-10-09T05:13:53.295Z,5.88
2022-10-09T05:14:26.160Z,5.70
2022-10-09T05:14:57.945Z,5.40
2022-10-09T05:15:31.353Z,5.47
2022-10-09T05:16:04.901Z,5.70
2022-10-09T05:16:49.698Z,5.60
2022-10-09T05:17:29.626Z,5.78
2022-10-09T05:18:01.515Z,5.57
2022-10-09T05:18:33.413Z,5.53
2022-10-09T05:19:06.206Z,5.50
2022-10-09T05:19:37.987Z,5.80
2022-10-09T05:20:10.165Z,5.35
2022-10-09T05:20:41.943Z,5.50
2022-10-09T05:21:14.963Z,6.00
2022-10-09T05:21:46.764Z,6.20
2022-10-09T05:22:18.531Z,5.93
2022-10-09T05:22:51.681Z,5.38
2022-10-09T05:23:23.967Z,5.15
2022-10-09T05:23:56.506Z,5.88
2022-10-09T05:24:29.914Z,5.18
2022-10-09T05:25:01.749Z,5.78
2022-10-09T05:25:33.527Z,5.97
2022-10-09T05:26:07.148Z,5.70
2022-10-09T05:26:39.902Z,5.63
2022-10-09T05:27:11.660Z,5.22
2022-10-09T05:27:43.524Z,5.22
2022-10-09T05:28:16.360Z,4.80
2022-10-09T05:28:48.977Z,6.10
2022-10-09T05:29:20.949Z,5.22
2022-10-09T05:29:53.716Z,5.60
2022-10-09T05:30:25.557Z,5.88
2022-10-09T05:30:59.120Z,5.60
2022-10-09T05:31:31.675Z,5.35
2022-10-09T05:32:04.875Z,4.90
2022-10-09T05:32:36.735Z,5.10
2022-10-09T05:33:08.496Z,5.20
2022-10-09T05:33:41.240Z,5.90
2022-10-09T05:34:13.028Z,6.82
2022-10-09T05:34:44.828Z,5.53
2022-10-09T05:35:17.716Z,5.57
2022-10-09T05:35:52.544Z,5.50
2022-10-09T05:36:24.648Z,5.78
2022-10-09T05:36:57.429Z,5.60
2022-10-09T05:37:29.199Z,6.25
2022-10-09T05:38:00.961Z,5.43
2022-10-09T05:38:34.118Z,6.00
2022-10-09T05:39:05.978Z,6.50
2022-10-09T05:39:38.363Z,6.10
2022-10-09T05:40:11.221Z,5.65
2022-10-09T05:40:50.394Z,6.35
2022-10-09T05:41:22.304Z,6.00
2022-10-09T05:41:55.071Z,5.38
2022-10-09T05:42:26.841Z,6.57
2022-10-09T05:42:58.664Z,5.38
2022-10-09T05:43:33.428Z,6.25
2022-10-09T05:44:05.268Z,5.30
2022-10-09T05:44:38.018Z,5.50
2022-10-09T05:45:11.156Z,6.03
2022-10-09T05:45:42.963Z,5.60
2022-10-09T05:46:18.924Z,5.90
2022-10-09T05:46:50.753Z,6.78
2022-10-09T05:47:22.557Z,6.13
2022-10-09T05:47:55.317Z,6.43
2022-10-09T05:48:27.120Z,5.18
2022-10-09T05:49:00.900Z,6.18
2022-10-09T05:49:33.676Z,5.95
2022-10-09T05:50:06.138Z,5.93
2022-10-09T05:50:37.896Z,6.47
2022-10-09T05:51:12.846Z,6.32
2022-10-09T05:51:45.598Z,5.43
2022-10-09T05:52:17.439Z,6.15
2022-10-09T05:52:49.471Z,5.78
2022-10-09T05:53:22.513Z,6.85
2022-10-09T05:53:55.190Z,5.93
2022-10-09T05:54:27.488Z,6.35
2022-10-09T05:55:00.299Z,6.55
2022-10-09T05:55:32.085Z,5.18
2022-10-09T05:56:14.953Z,5.93
2022-10-09T05:56:47.710Z,5.88
2022-10-09T05:57:19.520Z,5.15
2022-10-09T05:57:52.884Z,5.78
2022-10-09T05:58:25.669Z,5.35
2022-10-09T05:58:59.222Z,5.40
2022-10-09T05:59:31.056Z,6.10
2022-10-09T06:00:04.899Z,5.70
2022-10-09T06:00:36.898Z,5.68
2022-10-09T06:01:08.982Z,5.65
2022-10-09T06:01:44.452Z,16.67
2022-10-09T06:02:16.385Z,10.63
2022-10-09T06:02:48.582Z,13.00
2022-10-09T06:03:20.539Z,13.70
2022-10-09T06:03:54.801Z,11.68
2022-10-09T06:04:26.894Z,9.35
2022-10-09T06:04:59.129Z,8.48
2022-10-09T06:05:31.889Z,6.65
2022-10-09T06:06:05.344Z,6.22
2022-10-09T06:06:38.818Z,6.10
2022-10-09T06:07:12.042Z,6.82
2022-10-09T06:07:45.537Z,7.72
2022-10-09T06:08:17.321Z,23.65
2022-10-09T06:08:50.812Z,17.05
2022-10-09T06:09:25.189Z,26.17
2022-10-09T06:09:56.970Z,21.08
2022-10-09T06:10:32.513Z,12.75
2022-10-09T06:11:12.592Z,8.48
2022-10-09T06:11:46.122Z,6.82
2022-10-09T06:12:17.911Z,7.55
2022-10-09T06:12:49.973Z,6.30
2022-10-09T06:13:22.047Z,6.05
2022-10-09T06:13:55.093Z,5.25
2022-10-09T06:14:26.865Z,5.85
2022-10-09T06:14:58.681Z,6.20
2022-10-09T06:15:31.396Z,6.28
2022-10-09T06:16:03.608Z,6.28
2022-10-09T06:16:37.864Z,5.88
2022-10-09T06:17:12.026Z,6.65
2022-10-09T06:17:43.826Z,5.88
2022-10-09T06:18:15.625Z,5.40
2022-10-09T06:18:49.689Z,6.15
2022-10-09T06:19:22.816Z,5.90
2022-10-09T06:19:54.587Z,5.40
2022-10-09T06:20:27.347Z,4.95
2022-10-09T06:21:01.297Z,5.70
2022-10-09T06:21:34.769Z,5.95
2022-10-09T06:22:06.555Z,5.93
2022-10-09T06:22:38.322Z,5.50
2022-10-09T06:23:11.096Z,5.20
2022-10-09T06:23:43.259Z,4.93
2022-10-09T06:24:23.325Z,5.57
2022-10-09T06:24:58.970Z,5.57
2022-10-09T06:25:30.757Z,5.05
2022-10-09T06:26:06.515Z,4.90
2022-10-09T06:26:38.310Z,5.38
2022-10-09T06:27:13.006Z,5.05
2022-10-09T06:27:44.882Z,5.30
2022-10-09T06:28:16.722Z,6.10
2022-10-09T06:28:49.867Z,12.85
2022-10-09T06:29:21.885Z,33.13
2022-10-09T06:29:55.853Z,21.80
2022-10-09T06:30:28.665Z,17.48
2022-10-09T06:31:01.891Z,15.55
2022-10-09T06:31:33.773Z,11.35
2022-10-09T06:32:06.576Z,10.23
2022-10-09T06:32:39.688Z,7.53
2022-10-09T06:33:11.491Z,7.10
2022-10-09T06:33:45.232Z,6.57
2022-10-09T06:34:18.027Z,5.55
2022-10-09T06:34:49.789Z,5.55
2022-10-09T06:35:21.831Z,4.75
2022-10-09T06:36:00.791Z,6.28
2022-10-09T06:36:37.698Z,4.75
2022-10-09T06:37:09.506Z,5.70
2022-10-09T06:37:42.297Z,5.50
2022-10-09T06:38:15.359Z,4.45
2022-10-09T06:38:47.856Z,5.22
2022-10-09T06:39:20.865Z,4.85
2022-10-09T06:39:52.713Z,5.05
2022-10-09T06:40:24.493Z,4.88
2022-10-09T06:41:02.009Z,5.53
2022-10-09T06:41:34.708Z,5.28
2022-10-09T06:42:06.472Z,4.68
2022-10-09T06:42:39.957Z,4.65
2022-10-09T06:43:11.805Z,4.38
2022-10-09T06:43:47.880Z,5.05
2022-10-09T06:44:20.634Z,4.72
2022-10-09T06:44:52.609Z,4.32
2022-10-09T06:45:24.467Z,5.03
2022-10-09T06:45:57.589Z,5.05
2022-10-09T06:46:33.306Z,4.35
2022-10-09T06:47:06.332Z,5.45
2022-10-09T06:47:39.510Z,5.13
2022-10-09T06:48:11.323Z,5.43
2022-10-09T06:48:44.398Z,4.75
2022-10-09T06:49:16.264Z,4.90
2022-10-09T06:49:49.024Z,4.55
2022-10-09T06:50:20.925Z,4.65
2022-10-09T06:50:52.726Z,5.20
2022-10-09T06:51:27.793Z,5.20
2022-10-09T06:51:59.582Z,5.38
2022-10-09T06:52:31.389Z,5.30
2022-10-09T06:53:05.221Z,5.30
2022-10-09T06:53:38.467Z,5.65
2022-10-09T06:54:12.736Z,4.88
2022-10-09T06:54:45.478Z,4.40
2022-10-09T06:55:17.409Z,5.28
2022-10-09T06:55:53.145Z,5.13
2022-10-09T06:56:28.052Z,6.45
2022-10-09T06:56:59.833Z,4.88
2022-10-09T06:57:31.781Z,4.95
2022-10-09T06:58:04.630Z,4.78
2022-10-09T06:58:36.696Z,4.70
2022-10-09T06:59:10.173Z,4.35
2022-10-09T06:59:42.892Z,6.07
2022-10-09T07:00:15.010Z,4.70
2022-10-09T07:00:46.943Z,4.78
2022-10-09T07:01:21.318Z,5.25
2022-10-09T07:01:53.279Z,4.97
2022-10-09T07:02:25.144Z,5.43
2022-10-09T07:02:59.295Z,4.90
2022-10-09T07:03:31.169Z,4.80
2022-10-09T07:04:06.771Z,4.90
2022-10-09T07:04:39.555Z,5.50
2022-10-09T07:05:11.320Z,5.45
2022-10-09T07:05:43.130Z,4.50
2022-10-09T07:06:17.766Z,6.00
2022-10-09T07:06:49.546Z,6.00
2022-10-09T07:07:21.314Z,5.45
2022-10-09T07:07:54.086Z,4.97
2022-10-09T07:08:25.891Z,4.88
2022-10-09T07:08:59.725Z,5.13
2022-10-09T07:09:32.477Z,5.28
2022-10-09T07:10:04.755Z,5.32
2022-10-09T07:10:36.605Z,6.10
2022-10-09T07:11:10.366Z,4.93
2022-10-09T07:11:45.094Z,5.45
2022-10-09T07:12:16.892Z,4.40
2022-10-09T07:12:48.929Z,5.30
2022-10-09T07:13:21.821Z,4.90
2022-10-09T07:13:55.769Z,5.30
2022-10-09T07:14:30.708Z,5.38
2022-10-09T07:15:04.156Z,4.95
2022-10-09T07:15:36.101Z,5.03
2022-10-09T07:16:10.356Z,5.15
2022-10-09T07:16:44.051Z,5.28
2022-10-09T07:17:15.817Z,5.55
2022-10-09T07:17:48.585Z,4.75
2022-10-09T07:18:21.739Z,5.00
2022-10-09T07:18:53.967Z,5.40
2022-10-09T07:19:26.707Z,4.82
2022-10-09T07:19:58.598Z,5.10
2022-10-09T07:20:30.389Z,4.43
2022-10-09T07:21:03.369Z,5.25
2022-10-09T07:21:35.738Z,4.82
2022-10-09T07:22:11.313Z,5.38
2022-10-09T07:22:43.126Z,5.57
2022-10-09T07:23:14.932Z,5.28
2022-10-09T07:23:48.330Z,4.90
2022-10-09T07:24:21.113Z,5.20
2022-10-09T07:24:52.915Z,6.32
2022-10-09T07:25:25.736Z,5.75
2022-10-09T07:25:58.514Z,5.93
2022-10-09T07:26:32.550Z,5.65